Terminal Aerodrome Forecast
Issued by NWS

Home | Current Version | Previous Version | Text Only | Print | Product List | Glossary On
Versions: 1 2 3 4 5 6 7 8 9 10 11 12
000
FTUS43 KICT 072333
TAFHUT
TAF
KHUT 072333Z 0800/0824 36011KT P6SM SCT012 BKN035
      TEMPO 0800/0802 BKN020
     FM080400 33010KT P6SM SCT250=

USA.gov is the U.S. government's official web portal to all federal, state and local government web resources and services.